^^
Historische Daten
 
Tag Summe für November 25, 2017 Einheit:  Metric    English   Beide
« vorheriger Tag
nächster Tag »
Tag Woche Monat Jahr Benutzerdefiniert
  Aktuell: Max: Min: Durchschnitt:
Temperatur: 6.1 °C 6.5 °C 6.1 °C 6.3 °C
Tau Punkt: 5.3 °C 5.8 °C 5.3 °C 5.5 °C
Luftfeuchte: 95% 95% 95% 95%
Windgeschwindigkeit: 1.9km/h 24.1km/h 1.9km/h 14.3km/h
Wind Böen: 1.9km/h 24.1km/h - -
WindSW - - SW
Luftdruck: 1011.1 hPa 1012.4 hPa 1011.1 hPa -
Niederschlag: 0.0 mm      
Historical Graphs
 
 
Tabellendaten für November 25, 2017
Zeit Temperatur Tau Punkt Luftdruck Wind Windgeschwindigkeit Wind Böen Luftfeuchte Regen Rate (Stunde) Conditions
00:02 6.5 °C 5.8 °C 1012.4 hPa SW 22.2 km/h 22.2 km/h 95% 0.0 mm -RA
00:08 6.4 °C 5.7 °C 1012.4 hPa South 18.5 km/h 18.5 km/h 95% 0.0 mm -RA
00:12 6.4 °C 5.7 °C 1012.4 hPa WSW 20.4 km/h 20.4 km/h 95% 0.0 mm -RA
00:18 6.4 °C 5.7 °C 1012.4 hPa SSW 18.5 km/h 18.5 km/h 95% 0.0 mm -RA
00:23 6.4 °C 5.7 °C 1012.4 hPa SW 11.1 km/h 11.1 km/h 95% 0.0 mm -RA
00:28 6.3 °C 5.6 °C 1012.4 hPa South 11.1 km/h 11.1 km/h 95% 0.0 mm -RA
00:33 6.3 °C 5.6 °C 1012.4 hPa SW 9.3 km/h 9.3 km/h 95% 0.0 mm -RA
00:38 6.3 °C 5.6 °C 1012.4 hPa WSW 13.0 km/h 13.0 km/h 95% 0.0 mm -RA
00:42 6.3 °C 5.6 °C 1012.4 hPa South 14.8 km/h 14.8 km/h 95% 0.0 mm -RA
00:48 6.3 °C 5.6 °C 1012.1 hPa SW 20.4 km/h 20.4 km/h 95% 0.0 mm -RA
00:53 6.3 °C 5.6 °C 1012.1 hPa SW 18.5 km/h 18.5 km/h 95% 0.0 mm -RA
00:58 6.3 °C 5.6 °C 1012.1 hPa West 22.0 km/h 22.0 km/h 95% 0.0 mm -RA
01:03 6.3 °C 5.6 °C 1012.1 hPa SW 23.7 km/h 23.7 km/h 95% 0.0 mm -RA
01:08 6.3 °C 5.6 °C 1012.1 hPa SSW 22.2 km/h 22.2 km/h 95% 0.0 mm -RA
01:13 6.3 °C 5.6 °C 1011.7 hPa SW 15.3 km/h 15.3 km/h 95% 0.0 mm -RA
01:18 6.4 °C 5.7 °C 1011.7 hPa SW 24.1 km/h 24.1 km/h 95% 0.0 mm -RA
01:23 6.3 °C 5.6 °C 1011.7 hPa SSW 16.7 km/h 16.7 km/h 95% 0.0 mm -RA
01:28 6.3 °C 5.6 °C 1011.7 hPa SSW 16.7 km/h 16.7 km/h 95% 0.0 mm -RA
01:33 6.3 °C 5.6 °C 1011.7 hPa West 16.7 km/h 16.7 km/h 95% 0.0 mm -RA
01:38 6.3 °C 5.6 °C 1011.7 hPa SW 14.8 km/h 14.8 km/h 95% 0.0 mm -RA
01:42 6.3 °C 5.6 °C 1011.7 hPa SSW 13.0 km/h 13.0 km/h 95% 0.0 mm -RA
01:47 6.2 °C 5.5 °C 1011.7 hPa SW 14.8 km/h 14.8 km/h 95% 0.0 mm -RA
01:52 6.2 °C 5.5 °C 1011.7 hPa SW 15.3 km/h 15.3 km/h 95% 0.0 mm -RA
01:57 6.2 °C 5.5 °C 1011.7 hPa SW 14.8 km/h 14.8 km/h 95% 0.0 mm -RA
02:02 6.2 °C 5.5 °C 1011.7 hPa SW 11.1 km/h 11.1 km/h 95% 0.0 mm -RA
02:07 6.2 °C 5.5 °C 1011.4 hPa SSW 7.4 km/h 7.4 km/h 95% 0.0 mm -RA
02:12 6.2 °C 5.4 °C 1011.4 hPa WSW 7.4 km/h 7.4 km/h 95% 0.0 mm -RA
02:17 6.2 °C 5.4 °C 1011.4 hPa WSW 11.1 km/h 11.1 km/h 95% 0.0 mm -RA
02:23 6.2 °C 5.4 °C 1011.4 hPa SW 13.5 km/h 13.5 km/h 95% 0.0 mm SCT
02:28 6.2 °C 5.4 °C 1011.4 hPa South 9.3 km/h 9.3 km/h 95% 0.0 mm SCT
02:33 6.1 °C 5.4 °C 1011.1 hPa SE 11.1 km/h 11.1 km/h 95% 0.0 mm SCT
02:38 6.1 °C 5.3 °C 1011.1 hPa SW 6.8 km/h 6.8 km/h 95% 0.0 mm SCT
02:43 6.1 °C 5.4 °C 1011.4 hPa SW 9.3 km/h 9.3 km/h 95% 0.0 mm SCT
02:48 6.1 °C 5.3 °C 1011.1 hPa South 3.7 km/h 3.7 km/h 95% 0.0 mm SCT
02:53 6.1 °C 5.3 °C 1011.1 hPa SW 1.9 km/h 1.9 km/h 95% 0.0 mm SCT
Wetterstation-Johanngeorgenstadt
bereitgestellt durch Wetterstation-Johanngeorgenstadt und Weather Underground - 1.5 mb
Besucherstatistik
Besucher gesamt: 847.326
Besucher heute: 183
Besucher gestern: 1.394
Besucher pro Tag: 919,58
gerade online: 19
max. online: 156
Seitenaufrufe diese Seite: 2.887
counter Statistiken